Time;durP1;ratioP1;P1;durP2;ratioP2;P2;SDS_P1;SDS_P2;PMS_P1;PMS_P2;Temp;Humidity;BMP_temperature;BMP_pressure;BME280_temperature;BME280_humidity;BME280_pressure;Samples;Min_cycle;Max_cycle;Signal;HPM_P1;HPM_P2
2022/03/26 00:01:42;;;;;;;43.10;35.37;;;9.10;1.00;;;;;;4978582;28;20484;-83
2022/03/26 00:04:10;;;;;;;38.93;28.23;;;9.10;1.00;;;;;;4980971;28;20443;-80
2022/03/26 00:06:37;;;;;;;36.20;31.30;;;9.10;1.00;;;;;;4971476;28;20579;-80
2022/03/26 00:09:07;;;;;;;38.13;28.17;;;9.10;1.00;;;;;;4973531;28;20459;-80
2022/03/26 00:11:34;;;;;;;44.57;32.63;;;9.10;1.00;;;;;;4968575;28;20456;-80
2022/03/26 00:14:04;;;;;;;39.07;30.80;;;9.10;1.00;;;;;;4972325;28;20515;-82
2022/03/26 00:16:33;;;;;;;37.97;29.33;;;9.20;1.00;;;;;;4971220;28;20433;-81
2022/03/26 00:19:04;;;;;;;36.80;29.53;;;9.20;1.00;;;;;;4965355;28;20428;-81
2022/03/26 00:21:32;;;;;;;36.00;29.97;;;9.20;1.00;;;;;;4972107;28;20788;-81
2022/03/26 00:24:08;;;;;;;37.47;29.67;;;9.20;1.00;;;;;;4994788;28;20467;-80
2022/03/26 00:26:36;;;;;;;36.03;30.73;;;9.20;1.00;;;;;;4990978;28;20567;-78
2022/03/26 00:29:03;;;;;;;46.00;34.50;;;9.10;1.00;;;;;;4985946;28;21073;-78
2022/03/26 00:31:34;;;;;;;38.90;31.90;;;9.20;1.00;;;;;;4971735;28;20448;-81
2022/03/26 00:34:07;;;;;;;36.77;29.77;;;9.10;1.00;;;;;;4967971;28;20797;-79
2022/03/26 00:36:34;;;;;;;43.67;31.53;;;9.10;1.00;;;;;;4967551;28;20434;-81
2022/03/26 00:39:02;;;;;;;38.20;29.50;;;9.00;1.00;;;;;;4970958;28;20472;-79
2022/03/26 00:41:34;;;;;;;40.90;30.67;;;9.00;1.00;;;;;;4966458;28;20500;-79
2022/03/26 00:44:24;;;;;;;40.00;30.97;;;8.90;1.00;;;;;;4968727;28;20650;-81
2022/03/26 00:46:56;;;;;;;39.83;29.63;;;8.90;1.00;;;;;;4967889;28;20568;-80
2022/03/26 00:49:26;;;;;;;36.97;30.30;;;8.90;1.00;;;;;;4967300;28;21373;-80
2022/03/26 00:51:55;;;;;;;38.33;30.40;;;8.80;1.00;;;;;;4975683;28;21078;-80
2022/03/26 00:54:37;;;;;;;33.97;28.20;;;8.80;1.00;;;;;;4975002;28;20427;-81
2022/03/26 00:57:05;;;;;;;37.90;30.37;;;8.80;1.00;;;;;;4972381;28;20435;-80
2022/03/26 00:59:37;;;;;;;38.03;28.47;;;8.80;1.00;;;;;;4966013;28;20476;-80
2022/03/26 01:02:07;;;;;;;38.53;28.73;;;8.80;1.00;;;;;;4972670;28;20459;-80
2022/03/26 01:04:34;;;;;;;34.80;26.87;;;8.80;1.00;;;;;;4970397;28;20409;-81
2022/03/26 01:07:04;;;;;;;44.60;31.70;;;8.90;1.00;;;;;;4969791;28;20449;-82
2022/03/26 01:09:34;;;;;;;35.93;25.20;;;8.90;1.00;;;;;;4966551;28;20424;-82
2022/03/26 01:12:05;;;;;;;30.50;21.87;;;8.90;1.00;;;;;;4972402;28;20433;-81
2022/03/26 01:14:34;;;;;;;32.47;23.67;;;8.90;1.00;;;;;;4975094;28;20405;-81
2022/03/26 01:17:07;;;;;;;36.30;23.10;;;9.00;1.00;;;;;;4973834;28;20468;-79
2022/03/26 01:19:35;;;;;;;32.10;26.30;;;9.10;1.00;;;;;;4975738;28;20408;-79
2022/03/26 01:22:05;;;;;;;29.17;22.47;;;9.10;1.00;;;;;;4971722;28;20468;-81
2022/03/26 01:24:35;;;;;;;33.30;22.57;;;9.20;1.00;;;;;;4974390;28;20587;-81
2022/03/26 01:27:06;;;;;;;31.70;23.53;;;9.20;1.00;;;;;;4970929;28;20436;-80
2022/03/26 01:29:33;;;;;;;31.10;22.87;;;9.30;1.00;;;;;;4971090;28;20420;-80
2022/03/26 01:32:08;;;;;;;29.00;23.00;;;9.40;1.00;;;;;;4971839;28;20448;-79
2022/03/26 01:34:37;;;;;;;29.60;21.50;;;9.40;1.00;;;;;;4977750;28;20411;-80
2022/03/26 01:37:05;;;;;;;26.23;20.63;;;9.40;1.00;;;;;;4968550;28;20488;-80
2022/03/26 01:39:37;;;;;;;33.83;24.47;;;9.50;1.00;;;;;;4971462;28;20448;-81
2022/03/26 01:42:06;;;;;;;35.40;22.23;;;9.50;1.00;;;;;;4972881;28;20444;-82
2022/03/26 01:44:36;;;;;;;28.70;21.60;;;9.50;1.00;;;;;;4975364;28;20600;-80
2022/03/26 01:47:07;;;;;;;29.43;21.40;;;9.50;1.00;;;;;;4973066;28;21218;-78
2022/03/26 01:49:35;;;;;;;27.43;22.50;;;9.60;1.00;;;;;;4970775;28;20444;-79
2022/03/26 01:52:07;;;;;;;26.67;21.67;;;9.60;1.00;;;;;;4967312;28;20443;-80
2022/03/26 01:54:36;;;;;;;28.97;23.67;;;9.60;1.00;;;;;;4968943;28;20624;-80
2022/03/26 01:57:04;;;;;;;29.40;23.83;;;9.50;1.00;;;;;;4967391;28;20436;-81
2022/03/26 01:59:37;;;;;;;31.30;23.63;;;9.60;1.00;;;;;;4971008;28;20482;-81
2022/03/26 02:02:26;;;;;;;27.20;22.20;;;9.60;1.00;;;;;;4976333;28;20423;-79
2022/03/26 02:04:52;;;;;;;31.80;22.90;;;9.50;1.00;;;;;;4972915;28;20456;-80
2022/03/26 02:07:44;;;;;;;30.20;23.00;;;9.50;1.00;;;;;;4976371;28;20491;-79
2022/03/26 02:10:20;;;;;;;36.20;24.63;;;9.50;1.00;;;;;;4962266;28;20432;-81
2022/03/26 02:12:47;;;;;;;28.13;22.37;;;9.50;1.00;;;;;;4983787;28;20424;-80
2022/03/26 02:15:16;;;;;;;30.73;23.17;;;9.50;1.00;;;;;;4986345;28;20540;-79
2022/03/26 02:17:45;;;;;;;33.83;24.20;;;9.50;1.00;;;;;;4989777;28;20424;-80
2022/03/26 02:20:17;;;;;;;33.60;24.70;;;9.50;1.00;;;;;;4989804;28;20427;-80
2022/03/26 02:22:45;;;;;;;31.73;25.13;;;9.50;1.00;;;;;;4985585;28;20437;-81
2022/03/26 02:25:14;;;;;;;33.50;23.50;;;9.50;1.00;;;;;;4975939;28;20460;-79
2022/03/26 02:27:44;;;;;;;31.27;23.10;;;9.50;1.00;;;;;;4974995;28;20436;-80
2022/03/26 02:30:15;;;;;;;29.60;24.70;;;9.50;1.00;;;;;;4971008;28;20487;-80
2022/03/26 02:32:52;;;;;;;35.20;24.80;;;9.50;1.00;;;;;;4970156;28;20436;-83
2022/03/26 02:35:28;;;;;;;37.30;24.10;;;9.50;1.00;;;;;;4962838;28;21272;-82
2022/03/26 02:37:56;;;;;;;36.33;25.20;;;9.40;1.00;;;;;;4969259;28;20444;-81
2022/03/26 02:40:26;;;;;;;34.20;23.50;;;9.40;1.00;;;;;;4974248;28;20448;-81
2022/03/26 02:43:06;;;;;;;32.13;23.93;;;9.40;1.00;;;;;;4978793;28;20440;-78
2022/03/26 02:45:36;;;;;;;38.27;27.40;;;9.40;1.00;;;;;;4980082;28;20618;-79
2022/03/26 02:48:05;;;;;;;40.03;25.13;;;9.40;1.00;;;;;;4969985;28;20444;-81
2022/03/26 02:53:48;;;;;;;;;;;;;;;;;;;;;
2022/03/26 02:56:15;;;;;;;32.90;25.67;;;9.30;1.00;;;;;;4959870;28;40363;-81
2022/03/26 02:58:57;;;;;;;31.73;24.43;;;9.30;1.00;;;;;;4969574;28;20424;-80
2022/03/26 03:01:25;;;;;;;34.97;24.37;;;9.30;1.00;;;;;;4970482;28;20504;-79
2022/03/26 03:03:56;;;;;;;30.57;25.57;;;9.30;1.00;;;;;;4969588;28;20495;-80
2022/03/26 03:06:26;;;;;;;41.27;24.73;;;9.20;1.00;;;;;;4970796;28;21978;-81
2022/03/26 03:08:56;;;;;;;32.03;26.97;;;9.20;1.00;;;;;;4970807;28;20523;-82
2022/03/26 03:11:26;;;;;;;33.83;25.17;;;9.20;1.00;;;;;;4976010;28;20420;-79
2022/03/26 03:13:55;;;;;;;29.93;24.17;;;9.30;1.00;;;;;;4970741;28;20433;-79
2022/03/26 03:16:37;;;;;;;31.90;25.37;;;9.30;1.00;;;;;;4972696;28;20421;-80
2022/03/26 03:19:06;;;;;;;35.33;24.80;;;9.30;1.00;;;;;;4967456;28;20416;-81
2022/03/26 03:21:35;;;;;;;35.63;28.20;;;9.30;1.00;;;;;;4970081;28;20453;-81
2022/03/26 03:24:06;;;;;;;34.10;25.17;;;9.30;1.00;;;;;;4972283;28;20569;-82
2022/03/26 03:26:35;;;;;;;33.27;25.80;;;9.20;1.00;;;;;;4970969;28;20429;-78
2022/03/26 03:29:06;;;;;;;34.23;25.90;;;9.20;1.00;;;;;;4972142;28;20455;-79
2022/03/26 03:31:37;;;;;;;33.60;25.87;;;9.20;1.00;;;;;;4975130;28;20400;-81
2022/03/26 03:34:06;;;;;;;33.17;26.00;;;9.20;1.00;;;;;;4979505;28;20436;-82
2022/03/26 03:36:35;;;;;;;32.70;25.47;;;9.20;1.00;;;;;;4971629;28;20440;-80
2022/03/26 03:39:05;;;;;;;30.63;24.43;;;9.20;1.00;;;;;;4973500;28;20479;-81
2022/03/26 03:41:38;;;;;;;33.67;25.40;;;9.20;1.00;;;;;;4969436;28;20461;-81
2022/03/26 03:44:06;;;;;;;36.00;25.77;;;9.10;1.00;;;;;;4967070;28;20472;-80
2022/03/26 03:46:37;;;;;;;32.37;25.30;;;9.20;1.00;;;;;;4973923;28;20452;-81
2022/03/26 03:49:06;;;;;;;32.83;24.20;;;9.10;1.00;;;;;;4966542;28;20462;-81
2022/03/26 03:51:36;;;;;;;34.70;25.10;;;9.10;1.00;;;;;;4969765;28;20413;-80
2022/03/26 03:54:02;;;;;;;28.30;23.20;;;9.10;1.00;;;;;;4962088;28;20617;-81
2022/03/26 03:56:33;;;;;;;30.17;24.43;;;9.10;1.00;;;;;;4969167;28;20468;-80
2022/03/26 03:59:06;;;;;;;30.77;25.10;;;9.10;1.00;;;;;;4967523;28;20468;-81
2022/03/26 04:01:38;;;;;;;38.00;24.93;;;9.10;1.00;;;;;;4974750;28;20416;-81
2022/03/26 04:04:16;;;;;;;32.30;25.13;;;9.10;1.00;;;;;;4975610;28;20428;-79
2022/03/26 04:06:47;;;;;;;32.13;24.40;;;9.10;1.00;;;;;;4973172;28;20537;-80
2022/03/26 04:09:16;;;;;;;31.03;25.57;;;9.10;1.00;;;;;;4976357;28;20428;-79
2022/03/26 04:11:42;;;;;;;35.23;25.73;;;9.00;1.00;;;;;;4968880;28;20449;-81
2022/03/26 04:14:09;;;;;;;32.00;25.93;;;9.00;1.00;;;;;;4969717;28;20456;-81
2022/03/26 04:16:36;;;;;;;35.87;25.70;;;9.00;1.00;;;;;;4972692;28;20480;-80
2022/03/26 04:19:11;;;;;;;34.47;25.50;;;8.90;1.00;;;;;;4981154;28;20716;-81
2022/03/26 04:22:00;;;;;;;32.27;27.00;;;8.90;1.00;;;;;;4975668;28;20432;-79
2022/03/26 04:24:27;;;;;;;33.70;26.63;;;8.90;1.00;;;;;;4982303;28;20447;-81
2022/03/26 04:26:56;;;;;;;37.90;25.23;;;8.90;1.00;;;;;;4978938;28;20448;-80
2022/03/26 04:29:37;;;;;;;33.92;28.23;;;8.90;1.00;;;;;;4980332;28;20433;-80
2022/03/26 04:32:07;;;;;;;34.97;25.23;;;8.80;1.00;;;;;;4979948;28;20228;-81
2022/03/26 04:34:44;;;;;;;36.47;25.33;;;8.80;1.00;;;;;;4987173;28;20449;-80
2022/03/26 04:37:29;;;;;;;33.60;25.90;;;8.70;1.00;;;;;;4984994;28;20435;-81
2022/03/26 04:39:56;;;;;;;33.33;25.13;;;8.70;1.00;;;;;;4983223;28;20472;-81
2022/03/26 04:42:36;;;;;;;36.17;26.97;;;8.70;1.00;;;;;;4976850;28;20236;-78
2022/03/26 04:45:07;;;;;;;34.47;27.77;;;8.60;1.00;;;;;;4974141;28;20435;-80
2022/03/26 04:47:36;;;;;;;35.22;27.75;;;8.60;1.00;;;;;;4977343;28;20424;-80
2022/03/26 04:50:14;;;;;;;34.70;26.73;;;8.60;1.00;;;;;;4978649;28;20677;-80
2022/03/26 04:52:57;;;;;;;35.97;27.47;;;8.60;1.00;;;;;;4969853;28;20436;-80
2022/03/26 04:55:26;;;;;;;36.20;27.47;;;8.60;1.00;;;;;;4976373;28;20436;-80
2022/03/26 04:57:56;;;;;;;30.75;25.98;;;8.50;1.00;;;;;;4977849;28;20452;-79
2022/03/26 05:00:28;;;;;;;39.50;28.67;;;8.50;1.00;;;;;;4969726;28;20236;-81
2022/03/26 05:02:58;;;;;;;37.00;29.20;;;8.50;1.00;;;;;;4968853;28;20439;-79
2022/03/26 05:08:18;;;;;;;41.60;29.88;;;8.40;1.00;;;;;;4969930;28;20457;-81
2022/03/26 05:10:49;;;;;;;34.45;28.63;;;8.50;1.00;;;;;;4973009;28;20232;-78
2022/03/26 05:13:18;;;;;;;39.20;30.33;;;8.40;1.00;;;;;;4971256;28;20221;-80
2022/03/26 05:16:03;;;;;;;39.73;29.90;;;8.40;1.00;;;;;;4973168;28;20468;-80
2022/03/26 05:18:29;;;;;;;42.43;29.60;;;8.50;1.00;;;;;;4974845;28;20487;-81
2022/03/26 05:20:59;;;;;;;41.00;28.37;;;8.40;1.00;;;;;;4976274;28;20483;-78
2022/03/26 05:23:27;;;;;;;40.37;29.93;;;8.40;1.00;;;;;;4975326;28;20449;-80
2022/03/26 05:25:57;;;;;;;38.30;29.77;;;8.40;1.00;;;;;;4971845;28;20464;-79
2022/03/26 05:28:26;;;;;;;41.00;30.52;;;8.40;1.00;;;;;;4977716;28;20428;-79
2022/03/26 05:30:58;;;;;;;42.07;30.57;;;8.40;1.00;;;;;;4963127;28;20268;-81
2022/03/26 05:33:29;;;;;;;43.57;30.30;;;8.40;1.00;;;;;;4962877;28;20433;-81
2022/03/26 05:35:58;;;;;;;44.10;33.20;;;8.50;1.00;;;;;;4972577;28;20491;-79
2022/03/26 05:38:28;;;;;;;43.92;31.95;;;8.50;1.00;;;;;;4969657;28;20428;-80
2022/03/26 05:40:56;;;;;;;46.07;31.97;;;8.50;1.00;;;;;;4972994;28;20275;-81
2022/03/26 05:43:26;;;;;;;45.00;30.60;;;8.50;1.00;;;;;;4975510;28;20437;-81
2022/03/26 05:45:52;;;;;;;40.57;31.70;;;8.60;1.00;;;;;;4972774;28;21076;-80
2022/03/26 05:48:19;;;;;;;47.40;32.20;;;8.60;1.00;;;;;;4975259;28;20461;-78
2022/03/26 05:50:47;;;;;;;44.87;31.13;;;8.70;1.00;;;;;;4976402;28;20421;-80
2022/03/26 05:53:14;;;;;;;40.43;30.37;;;8.70;1.00;;;;;;4978736;28;20456;-80
2022/03/26 05:55:47;;;;;;;40.50;31.17;;;8.80;1.00;;;;;;4988205;28;20444;-79
2022/03/26 05:58:15;;;;;;;38.97;30.03;;;8.90;1.00;;;;;;5000244;28;20423;-80
2022/03/26 06:00:48;;;;;;;41.03;30.00;;;8.90;1.00;;;;;;4988990;28;20495;-80
2022/03/26 06:03:15;;;;;;;41.33;30.30;;;9.00;1.00;;;;;;4987528;28;20448;-78
2022/03/26 06:05:51;;;;;;;37.13;28.60;;;9.10;1.00;;;;;;4977469;28;20426;-81
2022/03/26 06:08:18;;;;;;;39.80;30.33;;;9.20;1.00;;;;;;4971596;28;21314;-80
2022/03/26 06:10:48;;;;;;;43.17;31.17;;;9.20;1.00;;;;;;4969582;28;20667;-79
2022/03/26 06:13:14;;;;;;;38.70;30.23;;;9.30;1.00;;;;;;4975453;28;20472;-80
2022/03/26 06:15:46;;;;;;;38.00;30.33;;;9.30;1.00;;;;;;4971978;28;20577;-81
2022/03/26 06:18:13;;;;;;;40.53;29.97;;;9.40;1.00;;;;;;4972346;28;20449;-80
2022/03/26 06:20:40;;;;;;;39.90;29.50;;;9.40;1.00;;;;;;4966881;28;20509;-80
2022/03/26 06:23:10;;;;;;;42.63;31.27;;;9.50;1.00;;;;;;4971611;28;20456;-81
2022/03/26 06:25:37;;;;;;;36.80;30.00;;;9.50;1.00;;;;;;4976823;28;21171;-79
2022/03/26 06:28:08;;;;;;;34.67;27.50;;;9.50;1.00;;;;;;4981274;28;20420;-80
2022/03/26 06:30:39;;;;;;;39.77;30.97;;;9.60;1.00;;;;;;4978061;28;21063;-79
2022/03/26 06:33:09;;;;;;;42.97;32.07;;;9.60;1.00;;;;;;4976661;28;20443;-80
2022/03/26 06:35:39;;;;;;;39.10;29.93;;;9.70;1.00;;;;;;4976495;28;20417;-81
2022/03/26 06:38:07;;;;;;;40.03;28.27;;;9.70;1.00;;;;;;4974497;28;20465;-80
2022/03/26 06:40:37;;;;;;;35.23;28.07;;;9.80;1.00;;;;;;4975876;28;20436;-80
2022/03/26 06:43:09;;;;;;;36.30;27.57;;;9.80;1.00;;;;;;4981292;28;20463;-78
2022/03/26 06:45:37;;;;;;;35.67;28.10;;;9.90;1.00;;;;;;4976632;28;20621;-81
2022/03/26 06:48:08;;;;;;;36.10;29.70;;;9.90;1.00;;;;;;4974550;28;20795;-79
2022/03/26 06:50:38;;;;;;;39.20;30.13;;;9.90;1.00;;;;;;4974800;28;20444;-80
2022/03/26 06:53:08;;;;;;;43.33;29.57;;;10.00;1.00;;;;;;4979945;28;20416;-80
2022/03/26 06:55:39;;;;;;;37.30;29.10;;;10.00;1.00;;;;;;4970213;28;20449;-79
2022/03/26 06:58:18;;;;;;;37.70;27.47;;;10.10;1.00;;;;;;4973142;28;20409;-80
2022/03/26 07:00:48;;;;;;;41.93;31.10;;;10.10;1.00;;;;;;4970576;28;20670;-80
2022/03/26 07:03:28;;;;;;;36.60;28.53;;;10.30;1.00;;;;;;4979069;28;20427;-80
2022/03/26 07:05:58;;;;;;;35.90;28.03;;;10.30;1.00;;;;;;4979891;28;20435;-79
2022/03/26 07:08:29;;;;;;;36.47;29.07;;;10.50;1.00;;;;;;4989826;28;20484;-79
2022/03/26 07:10:59;;;;;;;37.53;28.70;;;10.50;1.00;;;;;;4987125;28;20771;-78
2022/03/26 07:13:34;;;;;;;38.07;28.53;;;10.60;1.00;;;;;;4979605;28;20420;-80
2022/03/26 07:16:07;;;;;;;33.87;28.27;;;10.60;1.00;;;;;;4978574;28;20483;-80
2022/03/26 07:18:38;;;;;;;35.47;27.63;;;10.70;1.00;;;;;;4976140;28;20500;-81
2022/03/26 07:21:08;;;;;;;33.53;27.27;;;10.80;1.00;;;;;;4969759;28;20440;-80
2022/03/26 07:23:37;;;;;;;35.00;26.97;;;10.80;1.00;;;;;;4978483;28;20400;-80
2022/03/26 07:26:17;;;;;;;41.43;28.90;;;11.00;1.00;;;;;;4971610;28;20464;-78
2022/03/26 07:28:48;;;;;;;38.67;28.50;;;11.10;1.00;;;;;;4976922;28;20466;-81
2022/03/26 07:31:18;;;;;;;35.20;28.77;;;11.20;1.00;;;;;;4977029;28;20983;-78
2022/03/26 07:33:46;;;;;;;38.90;27.90;;;11.30;1.00;;;;;;4964702;28;20420;-79
2022/03/26 07:36:19;;;;;;;35.23;26.87;;;11.40;1.00;;;;;;4973845;28;20476;-82
2022/03/26 07:38:49;;;;;;;36.40;27.27;;;11.60;1.00;;;;;;4979084;28;20468;-79
2022/03/26 07:41:21;;;;;;;36.50;27.97;;;11.60;1.00;;;;;;4972973;28;20458;-80
2022/03/26 07:43:49;;;;;;;33.97;26.60;;;11.70;1.00;;;;;;4974229;28;20558;-80
2022/03/26 07:46:21;;;;;;;37.87;28.50;;;11.70;1.00;;;;;;4964590;28;20448;-81
2022/03/26 07:48:49;;;;;;;39.70;28.70;;;11.70;1.00;;;;;;4965632;28;20473;-80
2022/03/26 07:51:19;;;;;;;37.30;27.10;;;11.90;1.00;;;;;;4969312;28;20449;-80
2022/03/26 07:53:49;;;;;;;36.40;27.87;;;12.00;1.00;;;;;;4970995;28;20428;-79
2022/03/26 07:56:27;;;;;;;41.37;29.97;;;12.00;1.00;;;;;;4972242;28;20463;-80
2022/03/26 07:59:00;;;;;;;35.70;27.63;;;12.10;1.00;;;;;;4971953;28;20491;-80
2022/03/26 08:01:27;;;;;;;37.90;28.70;;;12.10;1.00;;;;;;4967495;28;20423;-78
2022/03/26 08:04:00;;;;;;;36.23;27.60;;;12.30;1.00;;;;;;4971280;28;20424;-80
2022/03/26 08:09:00;;;;;;;32.27;25.83;;;12.50;1.00;;;;;;4970144;28;20465;-80
2022/03/26 08:11:38;;;;;;;38.93;27.97;;;12.50;1.00;;;;;;4969912;28;20468;-82
2022/03/26 08:14:28;;;;;;;30.47;26.10;;;12.70;1.00;;;;;;4974488;28;23252;-79
2022/03/26 08:16:58;;;;;;;33.37;25.87;;;12.80;1.00;;;;;;4965509;28;21112;-80
2022/03/26 08:19:28;;;;;;;33.63;25.43;;;12.90;1.00;;;;;;4971384;28;20444;-82
2022/03/26 08:21:58;;;;;;;35.57;27.23;;;13.00;1.00;;;;;;4975722;28;20425;-81
2022/03/26 08:24:28;;;;;;;32.93;27.30;;;13.20;1.00;;;;;;4970607;28;20405;-81
2022/03/26 08:26:59;;;;;;;31.37;25.20;;;13.30;1.00;;;;;;4963427;28;20437;-79
2022/03/26 08:29:28;;;;;;;28.70;24.37;;;13.50;1.00;;;;;;4965308;28;21601;-81
2022/03/26 08:31:56;;;;;;;34.20;25.43;;;13.60;1.00;;;;;;4963374;28;20489;-81
2022/03/26 08:34:29;;;;;;;29.47;23.93;;;13.70;1.00;;;;;;4963012;28;20412;-81
2022/03/26 08:36:57;;;;;;;27.27;23.97;;;13.80;1.00;;;;;;4979909;28;20445;-81
2022/03/26 08:39:27;;;;;;;25.97;22.70;;;14.00;1.00;;;;;;4974241;28;20456;-80
2022/03/26 08:41:57;;;;;;;26.23;22.47;;;13.90;1.00;;;;;;4971765;28;20435;-81
2022/03/26 08:44:28;;;;;;;26.40;22.07;;;14.00;1.00;;;;;;4973335;28;21268;-80
2022/03/26 08:46:56;;;;;;;27.30;22.30;;;14.00;1.00;;;;;;4971430;28;20437;-81
2022/03/26 08:49:28;;;;;;;30.23;21.90;;;14.10;1.00;;;;;;4967830;28;20465;-81
2022/03/26 08:51:58;;;;;;;25.30;20.13;;;14.30;1.00;;;;;;4966575;28;20456;-83
2022/03/26 08:54:29;;;;;;;27.20;21.20;;;14.70;1.00;;;;;;4966493;28;20459;-81
2022/03/26 08:56:59;;;;;;;24.47;19.43;;;15.00;1.00;;;;;;4993959;23;20456;-79
2022/03/26 08:59:30;;;;;;;24.17;20.30;;;15.10;1.00;;;;;;4969746;28;20476;-79
2022/03/26 09:01:59;;;;;;;25.87;20.80;;;15.20;1.00;;;;;;4958945;28;20421;-77
2022/03/26 09:04:28;;;;;;;25.57;21.23;;;15.40;1.00;;;;;;4970755;28;20437;-78
2022/03/26 09:06:57;;;;;;;22.93;19.40;;;15.60;1.00;;;;;;4945998;28;20470;-77
2022/03/26 09:09:25;;;;;;;26.90;21.03;;;15.70;1.00;;;;;;4943257;28;20446;-78
2022/03/26 09:11:58;;;;;;;23.87;20.27;;;15.80;1.00;;;;;;4940862;28;20481;-77
2022/03/26 09:14:39;;;;;;;21.50;17.90;;;15.80;1.00;;;;;;4945488;28;20438;-77
2022/03/26 09:17:09;;;;;;;20.37;17.60;;;16.00;1.00;;;;;;4933531;28;20448;-78
2022/03/26 09:19:36;;;;;;;18.63;16.53;;;16.20;1.00;;;;;;4937992;28;20804;-76
2022/03/26 09:22:06;;;;;;;20.63;18.10;;;16.30;1.00;;;;;;4941154;28;21662;-78
2022/03/26 09:24:33;;;;;;;22.80;18.63;;;16.60;1.00;;;;;;4940478;28;20549;-78
2022/03/26 09:27:00;;;;;;;24.07;18.90;;;17.20;1.00;;;;;;4941641;28;20472;-78
2022/03/26 09:29:31;;;;;;;24.10;18.53;;;18.20;1.00;;;;;;4945009;28;20430;-75
2022/03/26 09:32:00;;;;;;;21.97;19.73;;;19.20;1.00;;;;;;4938852;28;20453;-76
2022/03/26 09:34:29;;;;;;;19.33;15.90;;;20.00;1.00;;;;;;4939977;28;21857;-79
2022/03/26 09:36:56;;;;;;;16.90;14.67;;;19.50;1.00;;;;;;4944462;28;20429;-78
2022/03/26 09:39:23;;;;;;;19.10;15.57;;;18.90;1.00;;;;;;4942442;28;20505;-76
2022/03/26 09:41:51;;;;;;;17.87;15.07;;;18.10;1.00;;;;;;4937895;28;20465;-79
2022/03/26 09:44:21;;;;;;;17.00;14.33;;;17.40;1.00;;;;;;4938363;28;20592;-77
2022/03/26 09:46:48;;;;;;;18.67;15.50;;;16.70;1.00;;;;;;4946288;28;20476;-79
2022/03/26 09:49:20;;;;;;;21.13;16.07;;;16.20;1.00;;;;;;4945812;28;20477;-80
2022/03/26 09:52:07;;;;;;;19.33;16.00;;;16.10;1.00;;;;;;4941332;28;20476;-77
2022/03/26 09:54:38;;;;;;;20.97;16.77;;;15.90;1.00;;;;;;4952989;28;20415;-79
2022/03/26 09:57:08;;;;;;;23.20;17.67;;;15.70;1.00;;;;;;4945454;28;20479;-79
2022/03/26 09:59:44;;;;;;;25.47;16.43;;;15.70;1.00;;;;;;4940480;28;20426;-80
2022/03/26 10:02:11;;;;;;;20.17;16.80;;;16.00;1.00;;;;;;4938137;28;21352;-77
2022/03/26 10:04:40;;;;;;;20.43;16.40;;;16.40;1.00;;;;;;4938729;28;20520;-77
2022/03/26 10:07:08;;;;;;;22.20;17.90;;;16.40;1.00;;;;;;4938080;28;20529;-75
2022/03/26 10:09:41;;;;;;;21.23;18.00;;;16.50;1.00;;;;;;4948809;28;20438;-75
2022/03/26 10:12:11;;;;;;;19.43;17.33;;;16.60;1.00;;;;;;4948843;28;20434;-79
2022/03/26 10:14:44;;;;;;;23.50;18.40;;;16.60;1.00;;;;;;4951113;28;20442;-76
2022/03/26 10:17:21;;;;;;;20.90;18.70;;;17.20;1.00;;;;;;4946281;28;20514;-75
2022/03/26 10:19:59;;;;;;;26.00;18.70;;;17.60;1.00;;;;;;4940120;28;20426;-77
2022/03/26 10:22:31;;;;;;;25.80;18.67;;;17.50;1.00;;;;;;4950068;28;20412;-76
2022/03/26 10:24:59;;;;;;;22.83;19.60;;;17.50;1.00;;;;;;4932799;28;21565;-75
2022/03/26 10:27:26;;;;;;;26.43;18.73;;;17.50;1.00;;;;;;4925883;28;20493;-76
2022/03/26 10:30:05;;;;;;;22.77;19.80;;;17.80;1.00;;;;;;4945375;28;20451;-74
2022/03/26 10:32:39;;;;;;;21.40;18.10;;;17.90;1.00;;;;;;4931241;28;20482;-75
2022/03/26 10:35:11;;;;;;;22.73;19.10;;;17.80;1.00;;;;;;4946374;28;20465;-77
2022/03/26 10:37:59;;;;;;;22.83;17.60;;;17.70;1.00;;;;;;4936999;28;20501;-76
2022/03/26 10:40:38;;;;;;;26.97;20.23;;;17.10;1.00;;;;;;4948881;28;20426;-76
2022/03/26 10:43:08;;;;;;;21.50;18.67;;;17.00;1.00;;;;;;4947226;28;20465;-76
2022/03/26 10:45:38;;;;;;;28.70;19.47;;;17.10;1.00;;;;;;4944227;28;20604;-79
2022/03/26 10:48:18;;;;;;;23.53;18.20;;;17.20;1.00;;;;;;4949383;28;20437;-76
2022/03/26 10:50:58;;;;;;;24.90;17.90;;;17.20;1.00;;;;;;4939693;28;20435;-76
2022/03/26 10:53:36;;;;;;;21.60;18.10;;;16.90;1.00;;;;;;4938384;28;20451;-76
2022/03/26 10:56:09;;;;;;;24.97;17.50;;;16.60;1.00;;;;;;4966034;23;20423;-77
2022/03/26 10:58:49;;;;;;;25.63;19.97;;;16.30;1.00;;;;;;4963955;28;20440;-77
2022/03/26 11:01:19;;;;;;;23.50;18.67;;;16.00;1.00;;;;;;4964773;28;20448;-76
2022/03/26 11:03:55;;;;;;;24.40;19.10;;;16.00;1.00;;;;;;4964274;28;21362;-77
2022/03/26 11:06:29;;;;;;;26.93;19.60;;;15.70;1.00;;;;;;4945445;28;20906;-78
2022/03/26 11:09:08;;;;;;;24.83;19.60;;;15.80;1.00;;;;;;4939130;28;20952;-76
2022/03/26 11:11:41;;;;;;;25.67;20.73;;;16.00;1.00;;;;;;4938265;28;20429;-76
2022/03/26 11:14:12;;;;;;;24.30;19.67;;;16.00;1.00;;;;;;4940682;28;20474;-79
2022/03/26 11:17:00;;;;;;;28.03;20.87;;;15.70;1.00;;;;;;4960053;23;21348;-76
2022/03/26 11:19:49;;;;;;;26.37;20.30;;;15.80;1.00;;;;;;4981278;28;20515;-75
2022/03/26 11:22:47;;;;;;;23.60;21.20;;;15.70;1.00;;;;;;4984399;28;20518;-77
2022/03/26 11:28:28;;;;;;;26.07;20.80;;;16.10;1.00;;;;;;4974561;23;39359;-76
2022/03/26 11:31:09;;;;;;;26.67;21.23;;;15.80;1.00;;;;;;4974111;28;20432;-79
2022/03/26 11:33:37;;;;;;;28.47;21.30;;;15.70;1.00;;;;;;4966030;28;21037;-76
2022/03/26 11:36:05;;;;;;;27.13;21.83;;;15.80;1.00;;;;;;4961825;28;20626;-78
2022/03/26 11:38:35;;;;;;;26.03;22.30;;;15.80;1.00;;;;;;4964046;28;20460;-80
2022/03/26 11:41:05;;;;;;;29.23;22.17;;;16.00;1.00;;;;;;4966884;28;20512;-79
2022/03/26 11:43:55;;;;;;;26.03;20.73;;;16.30;1.00;;;;;;4966346;28;20448;-77
2022/03/26 11:52:20;;;;;;;26.90;22.03;;;16.70;1.00;;;;;;4972467;28;20478;-80
2022/03/26 11:54:49;;;;;;;29.33;22.60;;;16.80;1.00;;;;;;4965130;28;20441;-79
2022/03/26 11:57:21;;;;;;;27.23;22.27;;;16.90;1.00;;;;;;4969477;28;20475;-78
2022/03/26 11:59:49;;;;;;;27.37;22.43;;;16.80;1.00;;;;;;4959380;28;20435;-77
2022/03/26 12:02:17;;;;;;;27.10;23.07;;;16.60;1.00;;;;;;4968077;28;20499;-76
2022/03/26 12:04:49;;;;;;;29.20;24.17;;;16.50;1.00;;;;;;4967165;28;25123;-81
2022/03/26 12:07:16;;;;;;;31.63;25.53;;;16.60;1.00;;;;;;4971190;28;20497;-79
2022/03/26 12:09:44;;;;;;;29.90;24.10;;;16.60;1.00;;;;;;4983467;28;20550;-80
2022/03/26 12:12:17;;;;;;;25.80;23.00;;;16.50;1.00;;;;;;4983878;28;20456;-76
2022/03/26 12:15:21;;;;;;;30.23;23.43;;;16.50;1.00;;;;;;4982445;28;20453;-78
2022/03/26 12:17:49;;;;;;;30.20;23.80;;;16.50;1.00;;;;;;4984644;28;20436;-79
2022/03/26 12:20:21;;;;;;;31.93;24.47;;;16.60;1.00;;;;;;4978100;28;20476;-77
2022/03/26 12:22:50;;;;;;;33.00;24.93;;;16.80;1.00;;;;;;4987350;28;20423;-77
2022/03/26 12:25:17;;;;;;;32.20;25.93;;;17.00;1.00;;;;;;4986917;28;20481;-78
2022/03/26 12:27:45;;;;;;;30.33;24.10;;;17.10;1.00;;;;;;4983397;28;20476;-80
2022/03/26 12:30:14;;;;;;;30.27;24.37;;;17.10;1.00;;;;;;4975820;28;20450;-77
2022/03/26 12:32:42;;;;;;;33.07;25.57;;;17.10;1.00;;;;;;4964587;28;20494;-78
2022/03/26 12:35:10;;;;;;;30.27;25.40;;;16.80;1.00;;;;;;5049738;23;20422;-77
2022/03/26 12:37:51;;;;;;;30.63;25.13;;;16.60;1.00;;;;;;4950582;28;20426;-80
2022/03/26 12:40:30;;;;;;;32.63;25.67;;;16.50;1.00;;;;;;4966062;28;20439;-77
2022/03/26 12:43:08;;;;;;;33.50;26.57;;;16.30;1.00;;;;;;4967530;28;20461;-78
2022/03/26 12:45:39;;;;;;;33.10;27.17;;;16.10;1.00;;;;;;4963054;28;20437;-76
2022/03/26 12:48:11;;;;;;;34.50;27.97;;;15.80;1.00;;;;;;4960885;28;20460;-78
2022/03/26 12:50:50;;;;;;;34.30;27.13;;;15.60;1.00;;;;;;4959107;28;20508;-80
2022/03/26 12:53:20;;;;;;;36.97;28.20;;;15.50;1.00;;;;;;4954343;28;20460;-79
2022/03/26 13:01:28;;;;;;;34.47;28.10;;;15.10;1.00;;;;;;4951061;28;20434;-77
2022/03/26 13:04:00;;;;;;;39.23;28.70;;;15.10;1.00;;;;;;4953916;28;20451;-82
2022/03/26 13:06:30;;;;;;;38.03;27.77;;;15.30;1.00;;;;;;4947909;28;20446;-79
2022/03/26 13:09:01;;;;;;;31.97;24.90;;;15.40;1.00;;;;;;4954559;28;20441;-77
2022/03/26 13:11:31;;;;;;;31.27;24.40;;;15.50;1.00;;;;;;4956328;28;20438;-80
2022/03/26 13:14:04;;;;;;;34.60;25.60;;;15.50;1.00;;;;;;4958179;28;20530;-80
2022/03/26 13:16:41;;;;;;;30.33;25.40;;;15.40;1.00;;;;;;4955415;28;20443;-82
2022/03/26 13:21:53;;;;;;;28.60;21.83;;;15.30;1.00;;;;;;4948809;28;20442;-79
2022/03/26 13:24:29;;;;;;;27.87;21.97;;;15.10;1.00;;;;;;4943842;28;20446;-80
2022/03/26 13:27:01;;;;;;;30.63;22.87;;;14.90;1.00;;;;;;4938355;28;20498;-78
2022/03/26 13:29:31;;;;;;;26.77;20.90;;;14.60;1.00;;;;;;4940096;28;20426;-81
2022/03/26 13:32:01;;;;;;;23.90;19.57;;;14.40;1.00;;;;;;4942780;28;21261;-80